メインページ
METAR-TAF:

METAR-TAF

空港 :

プスコフ, ロシア

緯度: 57-47-06N, 経度: 028-23-54E, 海抜: 47m

現時点の気象観測

当レポートは22分前の03:00(UTC)に作成
の風 8kt
気温 4°C
湿度 93%
気圧 1040 hPa
視程: 9000m

METAR: ULOO 160300Z AUTO 19004MPS 9000 // ///027/// 04/03 Q1040 RMK QFE775

時間: 06:22 (03:22 UTC)

予報

当レポートは16時間22分前の11:00(UTC)に作成
予報は15日の 12時(UTC)から 15日の 21時(UTC)まで有効
の風 6kt
視程: 4000m
高度600ftの千切れ雲あり
高度1700ftの千切れ雲あり
15日の 12時(UTC)から 15日の 18時(UTC)まで一時的に
視程: 3100m
高度400ftの千切れ雲あり
高度1100ftの千切れ雲あり
小霧雨, 靄
15日の 18時(UTC)から 15日の 21時(UTC)まで一時的に
視程: 1200m
高度400ftの千切れ雲あり
高度1700ftの曇り
小雨, 靄

TAF: ULOO 151100Z 1512/1521 18003MPS 4000 BR BKN006 BKN017 TEMPO 1512/1518 3100 -DZ BR BKN004 BKN011 TEMPO 1518/1521 1200 -RA BR BKN004 OVC017

4,000以上の空港の気象観測と天気予報(METAR報とTAF報)

利用可能な観測所は地図上に黄色い丸と赤い丸で示す。

丸の上にカーソルを重ねると観測所名を参照できる。

次にクリックすると気象観測と天気予報を参照できる。

マップの切り替え:黒色「×」印の緑ボタンをクリックして拡大、「-」印の緑ボタンをクリックして縮小、緑色の三角印をクリックして隣りの地図に切り替え


METAR-TAF: